sensor_id;sensor_type;location;lat;lon;timestamp;P1;durP1;ratioP1;P2;durP2;ratioP2
48241;SDS011;34041;51.812;4.622;2024-01-27T00:00:02;11.05;;;2.83;;
48241;SDS011;34041;51.812;4.622;2024-01-27T00:03:02;10.20;;;2.80;;
48241;SDS011;34041;51.812;4.622;2024-01-27T00:06:03;13.05;;;3.10;;
48241;SDS011;34041;51.812;4.622;2024-01-27T00:09:03;10.70;;;3.60;;
48241;SDS011;34041;51.812;4.622;2024-01-27T00:12:05;12.57;;;3.47;;
48241;SDS011;34041;51.812;4.622;2024-01-27T00:15:06;11.68;;;2.78;;
48241;SDS011;34041;51.812;4.622;2024-01-27T00:18:07;10.40;;;3.05;;
48241;SDS011;34041;51.812;4.622;2024-01-27T00:21:07;11.87;;;2.60;;
48241;SDS011;34041;51.812;4.622;2024-01-27T00:24:08;10.30;;;2.13;;
48241;SDS011;34041;51.812;4.622;2024-01-27T00:27:08;10.40;;;2.08;;
48241;SDS011;34041;51.812;4.622;2024-01-27T00:30:08;8.23;;;2.60;;
48241;SDS011;34041;51.812;4.622;2024-01-27T00:33:11;7.45;;;2.83;;
48241;SDS011;34041;51.812;4.622;2024-01-27T00:36:11;17.25;;;3.10;;
48241;SDS011;34041;51.812;4.622;2024-01-27T00:39:12;15.73;;;3.30;;
48241;SDS011;34041;51.812;4.622;2024-01-27T00:42:12;9.05;;;3.40;;
48241;SDS011;34041;51.812;4.622;2024-01-27T00:45:12;7.78;;;2.90;;
48241;SDS011;34041;51.812;4.622;2024-01-27T00:48:13;13.73;;;3.53;;
48241;SDS011;34041;51.812;4.622;2024-01-27T00:51:13;16.73;;;4.03;;
48241;SDS011;34041;51.812;4.622;2024-01-27T00:54:13;11.10;;;3.10;;
48241;SDS011;34041;51.812;4.622;2024-01-27T00:57:13;10.55;;;3.05;;
48241;SDS011;34041;51.812;4.622;2024-01-27T01:00:14;13.50;;;2.90;;
48241;SDS011;34041;51.812;4.622;2024-01-27T01:03:14;10.63;;;2.60;;
48241;SDS011;34041;51.812;4.622;2024-01-27T01:06:15;14.10;;;2.70;;
48241;SDS011;34041;51.812;4.622;2024-01-27T01:09:15;9.23;;;3.28;;
48241;SDS011;34041;51.812;4.622;2024-01-27T01:12:15;17.67;;;3.90;;
48241;SDS011;34041;51.812;4.622;2024-01-27T01:15:16;10.70;;;3.13;;
48241;SDS011;34041;51.812;4.622;2024-01-27T01:18:16;10.63;;;2.95;;
48241;SDS011;34041;51.812;4.622;2024-01-27T01:21:16;11.10;;;3.30;;
48241;SDS011;34041;51.812;4.622;2024-01-27T01:24:16;10.60;;;4.30;;
48241;SDS011;34041;51.812;4.622;2024-01-27T01:27:16;12.68;;;3.40;;
48241;SDS011;34041;51.812;4.622;2024-01-27T01:30:19;7.95;;;3.78;;
48241;SDS011;34041;51.812;4.622;2024-01-27T01:33:19;19.95;;;4.78;;
48241;SDS011;34041;51.812;4.622;2024-01-27T01:36:19;15.68;;;4.20;;
48241;SDS011;34041;51.812;4.622;2024-01-27T01:39:20;9.75;;;3.65;;
48241;SDS011;34041;51.812;4.622;2024-01-27T01:42:20;9.00;;;3.83;;
48241;SDS011;34041;51.812;4.622;2024-01-27T01:45:24;19.45;;;3.47;;
48241;SDS011;34041;51.812;4.622;2024-01-27T01:48:24;15.68;;;5.63;;
48241;SDS011;34041;51.812;4.622;2024-01-27T01:51:25;14.13;;;5.80;;
48241;SDS011;34041;51.812;4.622;2024-01-27T01:54:26;17.67;;;4.50;;
48241;SDS011;34041;51.812;4.622;2024-01-27T01:57:27;16.98;;;4.95;;
48241;SDS011;34041;51.812;4.622;2024-01-27T02:00:28;16.05;;;6.35;;
48241;SDS011;34041;51.812;4.622;2024-01-27T02:03:28;12.03;;;4.73;;
48241;SDS011;34041;51.812;4.622;2024-01-27T02:06:28;13.45;;;4.35;;
48241;SDS011;34041;51.812;4.622;2024-01-27T02:09:28;7.37;;;4.53;;
48241;SDS011;34041;51.812;4.622;2024-01-27T02:12:29;12.55;;;5.80;;
48241;SDS011;34041;51.812;4.622;2024-01-27T02:15:29;13.60;;;5.38;;
48241;SDS011;34041;51.812;4.622;2024-01-27T02:18:30;14.63;;;4.97;;
48241;SDS011;34041;51.812;4.622;2024-01-27T02:21:30;15.98;;;5.03;;
48241;SDS011;34041;51.812;4.622;2024-01-27T02:24:30;13.90;;;5.38;;
48241;SDS011;34041;51.812;4.622;2024-01-27T02:27:30;13.60;;;6.40;;
48241;SDS011;34041;51.812;4.622;2024-01-27T02:30:31;15.48;;;6.00;;
48241;SDS011;34041;51.812;4.622;2024-01-27T02:33:31;11.90;;;4.53;;
48241;SDS011;34041;51.812;4.622;2024-01-27T02:36:31;9.50;;;4.60;;
48241;SDS011;34041;51.812;4.622;2024-01-27T02:39:31;12.17;;;5.60;;
48241;SDS011;34041;51.812;4.622;2024-01-27T02:42:31;18.67;;;5.33;;
48241;SDS011;34041;51.812;4.622;2024-01-27T02:45:32;15.27;;;5.37;;
48241;SDS011;34041;51.812;4.622;2024-01-27T02:48:32;17.70;;;5.17;;
48241;SDS011;34041;51.812;4.622;2024-01-27T02:51:32;13.73;;;5.05;;
48241;SDS011;34041;51.812;4.622;2024-01-27T02:54:32;7.80;;;4.13;;
48241;SDS011;34041;51.812;4.622;2024-01-27T02:57:33;20.03;;;6.13;;
48241;SDS011;34041;51.812;4.622;2024-01-27T03:00:33;10.77;;;5.13;;
48241;SDS011;34041;51.812;4.622;2024-01-27T03:03:33;12.75;;;5.07;;
48241;SDS011;34041;51.812;4.622;2024-01-27T03:06:33;9.32;;;5.07;;
48241;SDS011;34041;51.812;4.622;2024-01-27T03:09:34;13.63;;;5.57;;
48241;SDS011;34041;51.812;4.622;2024-01-27T03:12:34;10.25;;;5.88;;
48241;SDS011;34041;51.812;4.622;2024-01-27T03:15:34;15.15;;;6.25;;
48241;SDS011;34041;51.812;4.622;2024-01-27T03:18:34;11.63;;;5.20;;
48241;SDS011;34041;51.812;4.622;2024-01-27T03:21:37;13.55;;;5.85;;
48241;SDS011;34041;51.812;4.622;2024-01-27T03:24:37;12.20;;;5.43;;
48241;SDS011;34041;51.812;4.622;2024-01-27T03:27:37;12.67;;;5.63;;
48241;SDS011;34041;51.812;4.622;2024-01-27T03:30:37;16.77;;;6.57;;
48241;SDS011;34041;51.812;4.622;2024-01-27T03:33:38;13.93;;;4.60;;
48241;SDS011;34041;51.812;4.622;2024-01-27T03:36:38;14.07;;;5.63;;
48241;SDS011;34041;51.812;4.622;2024-01-27T03:39:40;14.27;;;6.13;;
48241;SDS011;34041;51.812;4.622;2024-01-27T03:42:41;10.90;;;5.93;;
48241;SDS011;34041;51.812;4.622;2024-01-27T03:45:41;9.37;;;5.53;;
48241;SDS011;34041;51.812;4.622;2024-01-27T03:48:41;15.97;;;6.37;;
48241;SDS011;34041;51.812;4.622;2024-01-27T03:51:41;14.75;;;6.22;;
48241;SDS011;34041;51.812;4.622;2024-01-27T03:54:42;11.02;;;6.18;;
48241;SDS011;34041;51.812;4.622;2024-01-27T03:57:42;9.67;;;5.93;;
48241;SDS011;34041;51.812;4.622;2024-01-27T04:00:42;10.05;;;6.13;;
48241;SDS011;34041;51.812;4.622;2024-01-27T04:03:42;10.20;;;7.05;;
48241;SDS011;34041;51.812;4.622;2024-01-27T04:06:43;13.82;;;6.50;;
48241;SDS011;34041;51.812;4.622;2024-01-27T04:09:43;11.83;;;6.73;;
48241;SDS011;34041;51.812;4.622;2024-01-27T04:12:43;16.53;;;7.70;;
48241;SDS011;34041;51.812;4.622;2024-01-27T04:15:43;14.88;;;6.43;;
48241;SDS011;34041;51.812;4.622;2024-01-27T04:18:44;18.20;;;5.95;;
48241;SDS011;34041;51.812;4.622;2024-01-27T04:21:44;10.48;;;6.38;;
48241;SDS011;34041;51.812;4.622;2024-01-27T04:24:44;13.30;;;6.53;;
48241;SDS011;34041;51.812;4.622;2024-01-27T04:27:44;17.48;;;7.88;;
48241;SDS011;34041;51.812;4.622;2024-01-27T04:30:45;17.23;;;6.00;;
48241;SDS011;34041;51.812;4.622;2024-01-27T04:33:45;14.53;;;5.93;;
48241;SDS011;34041;51.812;4.622;2024-01-27T04:36:45;15.80;;;7.03;;
48241;SDS011;34041;51.812;4.622;2024-01-27T04:39:46;13.23;;;7.72;;
48241;SDS011;34041;51.812;4.622;2024-01-27T04:42:46;12.93;;;6.65;;
48241;SDS011;34041;51.812;4.622;2024-01-27T04:45:47;23.35;;;8.18;;
48241;SDS011;34041;51.812;4.622;2024-01-27T04:48:47;14.02;;;7.18;;
48241;SDS011;34041;51.812;4.622;2024-01-27T04:51:48;17.85;;;6.65;;
48241;SDS011;34041;51.812;4.622;2024-01-27T04:54:48;11.80;;;7.00;;
48241;SDS011;34041;51.812;4.622;2024-01-27T04:57:48;12.57;;;6.70;;
48241;SDS011;34041;51.812;4.622;2024-01-27T05:00:48;14.67;;;6.37;;
48241;SDS011;34041;51.812;4.622;2024-01-27T05:03:49;18.53;;;7.97;;
48241;SDS011;34041;51.812;4.622;2024-01-27T05:06:49;18.33;;;7.87;;
48241;SDS011;34041;51.812;4.622;2024-01-27T05:09:49;16.08;;;6.03;;
48241;SDS011;34041;51.812;4.622;2024-01-27T05:12:49;9.47;;;6.67;;
48241;SDS011;34041;51.812;4.622;2024-01-27T05:15:50;14.37;;;7.07;;
48241;SDS011;34041;51.812;4.622;2024-01-27T05:18:50;16.60;;;7.07;;
48241;SDS011;34041;51.812;4.622;2024-01-27T05:21:50;17.02;;;6.82;;
48241;SDS011;34041;51.812;4.622;2024-01-27T05:24:50;14.50;;;7.60;;
48241;SDS011;34041;51.812;4.622;2024-01-27T05:27:51;21.88;;;8.40;;
48241;SDS011;34041;51.812;4.622;2024-01-27T05:30:51;15.55;;;7.78;;
48241;SDS011;34041;51.812;4.622;2024-01-27T05:33:51;18.77;;;8.87;;
48241;SDS011;34041;51.812;4.622;2024-01-27T05:36:51;19.80;;;7.82;;
48241;SDS011;34041;51.812;4.622;2024-01-27T05:39:52;19.90;;;7.85;;
48241;SDS011;34041;51.812;4.622;2024-01-27T05:42:52;15.02;;;9.82;;
48241;SDS011;34041;51.812;4.622;2024-01-27T05:45:52;18.53;;;8.80;;
48241;SDS011;34041;51.812;4.622;2024-01-27T05:48:53;15.63;;;8.52;;
48241;SDS011;34041;51.812;4.622;2024-01-27T05:52:01;16.13;;;8.20;;
48241;SDS011;34041;51.812;4.622;2024-01-27T05:55:02;18.05;;;9.05;;
48241;SDS011;34041;51.812;4.622;2024-01-27T05:58:02;16.10;;;8.88;;
48241;SDS011;34041;51.812;4.622;2024-01-27T06:01:03;14.73;;;7.45;;
48241;SDS011;34041;51.812;4.622;2024-01-27T06:04:03;20.77;;;7.57;;
48241;SDS011;34041;51.812;4.622;2024-01-27T06:07:04;14.73;;;9.98;;
48241;SDS011;34041;51.812;4.622;2024-01-27T06:10:04;15.20;;;9.47;;
48241;SDS011;34041;51.812;4.622;2024-01-27T06:13:06;17.98;;;8.40;;
48241;SDS011;34041;51.812;4.622;2024-01-27T06:16:07;15.77;;;7.93;;
48241;SDS011;34041;51.812;4.622;2024-01-27T06:19:09;16.80;;;7.95;;
48241;SDS011;34041;51.812;4.622;2024-01-27T06:22:09;16.27;;;8.57;;
48241;SDS011;34041;51.812;4.622;2024-01-27T06:25:12;20.08;;;8.98;;
48241;SDS011;34041;51.812;4.622;2024-01-27T06:28:13;21.38;;;9.10;;
48241;SDS011;34041;51.812;4.622;2024-01-27T06:31:13;23.40;;;8.77;;
48241;SDS011;34041;51.812;4.622;2024-01-27T06:34:14;19.42;;;8.30;;
48241;SDS011;34041;51.812;4.622;2024-01-27T06:37:15;14.30;;;9.05;;
48241;SDS011;34041;51.812;4.622;2024-01-27T06:40:15;13.23;;;8.43;;
48241;SDS011;34041;51.812;4.622;2024-01-27T06:43:15;19.20;;;9.45;;
48241;SDS011;34041;51.812;4.622;2024-01-27T06:46:16;12.67;;;8.10;;
48241;SDS011;34041;51.812;4.622;2024-01-27T06:49:16;16.73;;;8.38;;
48241;SDS011;34041;51.812;4.622;2024-01-27T06:52:16;18.98;;;8.63;;
48241;SDS011;34041;51.812;4.622;2024-01-27T06:55:16;21.77;;;8.83;;
48241;SDS011;34041;51.812;4.622;2024-01-27T06:58:17;13.73;;;8.23;;
48241;SDS011;34041;51.812;4.622;2024-01-27T07:01:17;17.73;;;9.85;;
48241;SDS011;34041;51.812;4.622;2024-01-27T07:04:17;21.95;;;9.18;;
48241;SDS011;34041;51.812;4.622;2024-01-27T07:07:18;16.23;;;9.38;;
48241;SDS011;34041;51.812;4.622;2024-01-27T07:10:21;17.45;;;9.02;;
48241;SDS011;34041;51.812;4.622;2024-01-27T07:13:21;15.17;;;9.60;;
48241;SDS011;34041;51.812;4.622;2024-01-27T07:16:22;20.77;;;9.50;;
48241;SDS011;34041;51.812;4.622;2024-01-27T07:19:22;12.13;;;8.83;;
48241;SDS011;34041;51.812;4.622;2024-01-27T07:22:22;19.33;;;10.23;;
48241;SDS011;34041;51.812;4.622;2024-01-27T07:25:23;16.90;;;9.98;;
48241;SDS011;34041;51.812;4.622;2024-01-27T07:28:23;17.40;;;8.63;;
48241;SDS011;34041;51.812;4.622;2024-01-27T07:31:23;16.83;;;9.27;;
48241;SDS011;34041;51.812;4.622;2024-01-27T07:34:24;17.65;;;9.25;;
48241;SDS011;34041;51.812;4.622;2024-01-27T07:37:25;14.03;;;8.73;;
48241;SDS011;34041;51.812;4.622;2024-01-27T07:40:25;18.00;;;9.80;;
48241;SDS011;34041;51.812;4.622;2024-01-27T07:43:25;15.83;;;8.90;;
48241;SDS011;34041;51.812;4.622;2024-01-27T07:46:26;18.17;;;10.82;;
48241;SDS011;34041;51.812;4.622;2024-01-27T07:49:26;15.47;;;10.00;;
48241;SDS011;34041;51.812;4.622;2024-01-27T07:52:26;20.73;;;10.23;;
48241;SDS011;34041;51.812;4.622;2024-01-27T07:55:27;18.25;;;9.60;;
48241;SDS011;34041;51.812;4.622;2024-01-27T07:58:27;28.33;;;10.55;;
48241;SDS011;34041;51.812;4.622;2024-01-27T08:01:28;21.55;;;10.55;;
48241;SDS011;34041;51.812;4.622;2024-01-27T08:04:28;23.87;;;11.00;;
48241;SDS011;34041;51.812;4.622;2024-01-27T08:07:28;18.03;;;11.00;;
48241;SDS011;34041;51.812;4.622;2024-01-27T08:10:28;20.02;;;10.38;;
48241;SDS011;34041;51.812;4.622;2024-01-27T08:13:29;16.50;;;10.15;;
48241;SDS011;34041;51.812;4.622;2024-01-27T08:16:29;19.37;;;8.33;;
48241;SDS011;34041;51.812;4.622;2024-01-27T08:19:29;19.85;;;10.02;;
48241;SDS011;34041;51.812;4.622;2024-01-27T08:22:29;24.75;;;9.52;;
48241;SDS011;34041;51.812;4.622;2024-01-27T08:25:30;17.27;;;9.93;;
48241;SDS011;34041;51.812;4.622;2024-01-27T08:28:30;21.02;;;9.05;;
48241;SDS011;34041;51.812;4.622;2024-01-27T08:31:30;12.40;;;8.37;;
48241;SDS011;34041;51.812;4.622;2024-01-27T08:34:30;20.75;;;9.63;;
48241;SDS011;34041;51.812;4.622;2024-01-27T08:37:31;15.03;;;9.60;;
48241;SDS011;34041;51.812;4.622;2024-01-27T08:40:36;16.92;;;9.02;;
48241;SDS011;34041;51.812;4.622;2024-01-27T08:43:36;10.70;;;7.30;;
48241;SDS011;34041;51.812;4.622;2024-01-27T08:46:37;13.43;;;7.95;;
48241;SDS011;34041;51.812;4.622;2024-01-27T08:49:37;15.10;;;8.30;;
48241;SDS011;34041;51.812;4.622;2024-01-27T08:52:37;13.95;;;8.20;;
48241;SDS011;34041;51.812;4.622;2024-01-27T08:55:37;18.92;;;8.40;;
48241;SDS011;34041;51.812;4.622;2024-01-27T08:58:38;22.38;;;8.75;;
48241;SDS011;34041;51.812;4.622;2024-01-27T09:01:38;13.60;;;7.35;;
48241;SDS011;34041;51.812;4.622;2024-01-27T09:04:38;15.10;;;7.40;;
48241;SDS011;34041;51.812;4.622;2024-01-27T09:07:38;15.37;;;7.30;;
48241;SDS011;34041;51.812;4.622;2024-01-27T09:10:38;12.97;;;7.23;;
48241;SDS011;34041;51.812;4.622;2024-01-27T09:13:39;17.50;;;7.70;;
48241;SDS011;34041;51.812;4.622;2024-01-27T09:16:39;13.53;;;8.23;;
48241;SDS011;34041;51.812;4.622;2024-01-27T09:19:40;17.98;;;7.85;;
48241;SDS011;34041;51.812;4.622;2024-01-27T09:22:40;12.20;;;7.23;;
48241;SDS011;34041;51.812;4.622;2024-01-27T09:25:41;13.48;;;7.35;;
48241;SDS011;34041;51.812;4.622;2024-01-27T09:28:41;16.05;;;7.30;;
48241;SDS011;34041;51.812;4.622;2024-01-27T09:31:43;12.07;;;6.43;;
48241;SDS011;34041;51.812;4.622;2024-01-27T09:34:43;15.67;;;7.00;;
48241;SDS011;34041;51.812;4.622;2024-01-27T09:37:44;17.20;;;7.67;;
48241;SDS011;34041;51.812;4.622;2024-01-27T09:40:46;13.25;;;7.35;;
48241;SDS011;34041;51.812;4.622;2024-01-27T09:43:46;21.83;;;8.27;;
48241;SDS011;34041;51.812;4.622;2024-01-27T09:46:47;17.17;;;7.07;;
48241;SDS011;34041;51.812;4.622;2024-01-27T09:49:48;12.10;;;6.88;;
48241;SDS011;34041;51.812;4.622;2024-01-27T09:52:49;20.15;;;8.02;;
48241;SDS011;34041;51.812;4.622;2024-01-27T09:55:49;13.57;;;6.97;;
48241;SDS011;34041;51.812;4.622;2024-01-27T09:58:50;16.25;;;8.57;;
48241;SDS011;34041;51.812;4.622;2024-01-27T10:01:50;12.93;;;6.68;;
48241;SDS011;34041;51.812;4.622;2024-01-27T10:04:53;14.10;;;7.18;;
48241;SDS011;34041;51.812;4.622;2024-01-27T10:07:53;17.75;;;7.60;;
48241;SDS011;34041;51.812;4.622;2024-01-27T10:10:54;16.00;;;7.77;;
48241;SDS011;34041;51.812;4.622;2024-01-27T10:13:56;14.15;;;7.32;;
48241;SDS011;34041;51.812;4.622;2024-01-27T10:16:57;15.38;;;6.72;;
48241;SDS011;34041;51.812;4.622;2024-01-27T10:20:01;15.17;;;7.13;;
48241;SDS011;34041;51.812;4.622;2024-01-27T10:23:11;16.33;;;7.70;;
48241;SDS011;34041;51.812;4.622;2024-01-27T10:26:11;14.10;;;7.20;;
48241;SDS011;34041;51.812;4.622;2024-01-27T10:29:11;13.37;;;7.00;;
48241;SDS011;34041;51.812;4.622;2024-01-27T10:32:12;15.25;;;7.57;;
48241;SDS011;34041;51.812;4.622;2024-01-27T10:35:12;16.65;;;8.23;;
48241;SDS011;34041;51.812;4.622;2024-01-27T10:38:13;13.95;;;6.88;;
48241;SDS011;34041;51.812;4.622;2024-01-27T10:41:14;13.07;;;7.20;;
48241;SDS011;34041;51.812;4.622;2024-01-27T10:44:17;14.82;;;7.63;;
48241;SDS011;34041;51.812;4.622;2024-01-27T10:47:18;15.35;;;7.85;;
48241;SDS011;34041;51.812;4.622;2024-01-27T10:50:20;15.75;;;6.60;;
48241;SDS011;34041;51.812;4.622;2024-01-27T10:53:23;13.02;;;6.78;;
48241;SDS011;34041;51.812;4.622;2024-01-27T10:56:24;15.50;;;7.55;;
48241;SDS011;34041;51.812;4.622;2024-01-27T10:59:28;20.90;;;8.30;;
48241;SDS011;34041;51.812;4.622;2024-01-27T11:02:32;23.63;;;8.40;;
48241;SDS011;34041;51.812;4.622;2024-01-27T11:05:33;12.48;;;7.78;;
48241;SDS011;34041;51.812;4.622;2024-01-27T11:08:35;14.70;;;7.20;;
48241;SDS011;34041;51.812;4.622;2024-01-27T11:11:35;17.42;;;7.30;;
48241;SDS011;34041;51.812;4.622;2024-01-27T11:14:36;17.58;;;6.68;;
48241;SDS011;34041;51.812;4.622;2024-01-27T11:17:40;16.10;;;6.40;;
48241;SDS011;34041;51.812;4.622;2024-01-27T11:20:44;17.65;;;8.32;;
48241;SDS011;34041;51.812;4.622;2024-01-27T11:23:44;16.63;;;7.38;;
48241;SDS011;34041;51.812;4.622;2024-01-27T11:26:47;15.73;;;7.35;;
48241;SDS011;34041;51.812;4.622;2024-01-27T11:29:47;14.10;;;6.90;;
48241;SDS011;34041;51.812;4.622;2024-01-27T11:32:48;22.75;;;6.97;;
48241;SDS011;34041;51.812;4.622;2024-01-27T11:35:59;14.55;;;6.72;;
48241;SDS011;34041;51.812;4.622;2024-01-27T11:38:59;11.90;;;5.97;;
48241;SDS011;34041;51.812;4.622;2024-01-27T11:42:07;13.13;;;6.88;;
48241;SDS011;34041;51.812;4.622;2024-01-27T11:45:07;16.30;;;6.85;;
48241;SDS011;34041;51.812;4.622;2024-01-27T11:48:08;22.17;;;7.25;;
48241;SDS011;34041;51.812;4.622;2024-01-27T11:51:10;16.42;;;7.80;;
48241;SDS011;34041;51.812;4.622;2024-01-27T11:54:11;20.88;;;9.85;;
48241;SDS011;34041;51.812;4.622;2024-01-27T11:57:11;17.13;;;6.85;;
48241;SDS011;34041;51.812;4.622;2024-01-27T12:00:12;17.85;;;7.53;;
48241;SDS011;34041;51.812;4.622;2024-01-27T12:03:12;18.42;;;8.55;;
48241;SDS011;34041;51.812;4.622;2024-01-27T12:06:12;12.73;;;6.65;;
48241;SDS011;34041;51.812;4.622;2024-01-27T12:09:13;17.38;;;7.82;;
48241;SDS011;34041;51.812;4.622;2024-01-27T12:12:13;16.38;;;7.13;;
48241;SDS011;34041;51.812;4.622;2024-01-27T12:15:16;13.35;;;7.10;;
48241;SDS011;34041;51.812;4.622;2024-01-27T12:18:20;11.23;;;6.97;;
48241;SDS011;34041;51.812;4.622;2024-01-27T12:21:20;15.40;;;6.63;;
48241;SDS011;34041;51.812;4.622;2024-01-27T12:24:20;10.43;;;5.82;;
48241;SDS011;34041;51.812;4.622;2024-01-27T12:27:21;18.23;;;7.25;;
48241;SDS011;34041;51.812;4.622;2024-01-27T12:30:21;15.13;;;5.70;;
48241;SDS011;34041;51.812;4.622;2024-01-27T12:33:22;11.30;;;5.95;;
48241;SDS011;34041;51.812;4.622;2024-01-27T12:36:25;12.20;;;5.10;;
48241;SDS011;34041;51.812;4.622;2024-01-27T12:39:25;11.65;;;5.82;;
48241;SDS011;34041;51.812;4.622;2024-01-27T12:42:26;12.48;;;4.88;;
48241;SDS011;34041;51.812;4.622;2024-01-27T12:45:26;15.75;;;4.75;;
48241;SDS011;34041;51.812;4.622;2024-01-27T12:48:26;14.53;;;5.30;;
48241;SDS011;34041;51.812;4.622;2024-01-27T12:51:26;13.82;;;5.15;;
48241;SDS011;34041;51.812;4.622;2024-01-27T12:54:27;17.88;;;4.38;;
48241;SDS011;34041;51.812;4.622;2024-01-27T12:57:27;10.27;;;4.25;;
48241;SDS011;34041;51.812;4.622;2024-01-27T13:00:27;13.03;;;5.97;;
48241;SDS011;34041;51.812;4.622;2024-01-27T13:03:27;15.30;;;5.47;;
48241;SDS011;34041;51.812;4.622;2024-01-27T13:06:28;15.95;;;5.45;;
48241;SDS011;34041;51.812;4.622;2024-01-27T13:09:28;11.73;;;4.25;;
48241;SDS011;34041;51.812;4.622;2024-01-27T13:12:28;18.15;;;4.22;;
48241;SDS011;34041;51.812;4.622;2024-01-27T13:15:28;18.60;;;5.25;;
48241;SDS011;34041;51.812;4.622;2024-01-27T13:18:29;12.00;;;4.93;;
48241;SDS011;34041;51.812;4.622;2024-01-27T13:21:29;13.63;;;4.50;;
48241;SDS011;34041;51.812;4.622;2024-01-27T13:24:29;13.00;;;6.53;;
48241;SDS011;34041;51.812;4.622;2024-01-27T13:27:29;13.88;;;4.57;;
48241;SDS011;34041;51.812;4.622;2024-01-27T13:30:30;9.07;;;4.30;;
48241;SDS011;34041;51.812;4.622;2024-01-27T13:33:30;10.88;;;5.13;;
48241;SDS011;34041;51.812;4.622;2024-01-27T13:36:32;10.60;;;4.97;;
48241;SDS011;34041;51.812;4.622;2024-01-27T13:39:34;11.70;;;4.80;;
48241;SDS011;34041;51.812;4.622;2024-01-27T13:42:36;13.48;;;4.38;;
48241;SDS011;34041;51.812;4.622;2024-01-27T13:45:36;10.20;;;5.05;;
48241;SDS011;34041;51.812;4.622;2024-01-27T13:48:36;15.13;;;4.75;;
48241;SDS011;34041;51.812;4.622;2024-01-27T13:51:37;15.02;;;5.38;;
48241;SDS011;34041;51.812;4.622;2024-01-27T13:54:37;17.10;;;4.80;;
48241;SDS011;34041;51.812;4.622;2024-01-27T13:57:38;21.23;;;5.68;;
48241;SDS011;34041;51.812;4.622;2024-01-27T14:00:38;20.95;;;6.25;;
48241;SDS011;34041;51.812;4.622;2024-01-27T14:03:39;13.20;;;5.83;;
48241;SDS011;34041;51.812;4.622;2024-01-27T14:06:39;18.60;;;6.23;;
48241;SDS011;34041;51.812;4.622;2024-01-27T14:09:39;10.95;;;4.00;;
48241;SDS011;34041;51.812;4.622;2024-01-27T14:12:39;16.58;;;5.18;;
48241;SDS011;34041;51.812;4.622;2024-01-27T14:15:40;14.85;;;6.18;;
48241;SDS011;34041;51.812;4.622;2024-01-27T14:18:40;12.10;;;5.53;;
48241;SDS011;34041;51.812;4.622;2024-01-27T14:21:42;14.93;;;4.60;;
48241;SDS011;34041;51.812;4.622;2024-01-27T14:24:42;12.88;;;5.43;;
48241;SDS011;34041;51.812;4.622;2024-01-27T14:27:42;14.05;;;5.47;;
48241;SDS011;34041;51.812;4.622;2024-01-27T14:30:42;12.63;;;4.78;;
48241;SDS011;34041;51.812;4.622;2024-01-27T14:33:44;15.63;;;5.20;;
48241;SDS011;34041;51.812;4.622;2024-01-27T14:36:44;12.68;;;6.45;;
48241;SDS011;34041;51.812;4.622;2024-01-27T14:39:45;15.93;;;6.20;;
48241;SDS011;34041;51.812;4.622;2024-01-27T14:42:46;10.90;;;4.60;;
48241;SDS011;34041;51.812;4.622;2024-01-27T14:45:46;15.90;;;5.88;;
48241;SDS011;34041;51.812;4.622;2024-01-27T14:48:47;13.15;;;4.95;;
48241;SDS011;34041;51.812;4.622;2024-01-27T14:51:47;14.77;;;5.13;;
48241;SDS011;34041;51.812;4.622;2024-01-27T14:54:48;14.70;;;6.00;;
48241;SDS011;34041;51.812;4.622;2024-01-27T14:57:48;12.75;;;4.63;;
48241;SDS011;34041;51.812;4.622;2024-01-27T15:00:48;22.50;;;5.93;;
48241;SDS011;34041;51.812;4.622;2024-01-27T15:03:52;14.98;;;5.95;;
48241;SDS011;34041;51.812;4.622;2024-01-27T15:06:55;14.25;;;6.60;;
48241;SDS011;34041;51.812;4.622;2024-01-27T15:09:56;24.00;;;5.07;;
48241;SDS011;34041;51.812;4.622;2024-01-27T15:12:57;14.37;;;5.53;;
48241;SDS011;34041;51.812;4.622;2024-01-27T15:15:58;15.00;;;5.85;;
48241;SDS011;34041;51.812;4.622;2024-01-27T15:18:59;23.15;;;5.82;;
48241;SDS011;34041;51.812;4.622;2024-01-27T15:21:59;13.88;;;5.68;;
48241;SDS011;34041;51.812;4.622;2024-01-27T15:25:00;22.83;;;6.38;;
48241;SDS011;34041;51.812;4.622;2024-01-27T15:28:00;15.20;;;5.88;;
48241;SDS011;34041;51.812;4.622;2024-01-27T15:31:01;13.70;;;5.13;;
48241;SDS011;34041;51.812;4.622;2024-01-27T15:34:01;18.13;;;5.53;;
48241;SDS011;34041;51.812;4.622;2024-01-27T15:37:03;19.88;;;5.32;;
48241;SDS011;34041;51.812;4.622;2024-01-27T15:40:03;12.05;;;5.13;;
48241;SDS011;34041;51.812;4.622;2024-01-27T15:43:04;17.50;;;6.55;;
48241;SDS011;34041;51.812;4.622;2024-01-27T15:46:04;13.63;;;6.55;;
48241;SDS011;34041;51.812;4.622;2024-01-27T15:49:06;15.35;;;6.38;;
48241;SDS011;34041;51.812;4.622;2024-01-27T15:52:07;14.65;;;6.30;;
48241;SDS011;34041;51.812;4.622;2024-01-27T15:55:07;15.70;;;6.22;;
48241;SDS011;34041;51.812;4.622;2024-01-27T15:58:07;15.65;;;5.90;;
48241;SDS011;34041;51.812;4.622;2024-01-27T16:01:09;21.77;;;7.32;;
48241;SDS011;34041;51.812;4.622;2024-01-27T16:04:09;19.60;;;6.93;;
48241;SDS011;34041;51.812;4.622;2024-01-27T16:07:10;21.13;;;9.20;;
48241;SDS011;34041;51.812;4.622;2024-01-27T16:10:10;17.10;;;7.65;;
48241;SDS011;34041;51.812;4.622;2024-01-27T16:13:10;19.02;;;7.00;;
48241;SDS011;34041;51.812;4.622;2024-01-27T16:16:11;19.75;;;7.28;;
48241;SDS011;34041;51.812;4.622;2024-01-27T16:19:11;17.23;;;7.28;;
48241;SDS011;34041;51.812;4.622;2024-01-27T16:22:11;17.25;;;6.60;;
48241;SDS011;34041;51.812;4.622;2024-01-27T16:25:12;20.92;;;7.25;;
48241;SDS011;34041;51.812;4.622;2024-01-27T16:28:12;19.58;;;6.85;;
48241;SDS011;34041;51.812;4.622;2024-01-27T16:31:12;19.50;;;6.80;;
48241;SDS011;34041;51.812;4.622;2024-01-27T16:34:12;20.83;;;7.32;;
48241;SDS011;34041;51.812;4.622;2024-01-27T16:37:13;15.80;;;6.93;;
48241;SDS011;34041;51.812;4.622;2024-01-27T16:40:13;23.40;;;7.80;;
48241;SDS011;34041;51.812;4.622;2024-01-27T16:43:13;17.70;;;8.50;;
48241;SDS011;34041;51.812;4.622;2024-01-27T16:46:13;21.60;;;6.93;;
48241;SDS011;34041;51.812;4.622;2024-01-27T16:49:14;22.40;;;7.80;;
48241;SDS011;34041;51.812;4.622;2024-01-27T16:52:14;40.43;;;8.90;;
48241;SDS011;34041;51.812;4.622;2024-01-27T16:55:14;22.20;;;9.20;;
48241;SDS011;34041;51.812;4.622;2024-01-27T16:58:15;20.60;;;7.13;;
48241;SDS011;34041;51.812;4.622;2024-01-27T17:01:15;19.10;;;6.90;;
48241;SDS011;34041;51.812;4.622;2024-01-27T17:04:16;25.55;;;7.03;;
48241;SDS011;34041;51.812;4.622;2024-01-27T17:07:16;16.73;;;8.75;;
48241;SDS011;34041;51.812;4.622;2024-01-27T17:10:16;20.27;;;7.38;;
48241;SDS011;34041;51.812;4.622;2024-01-27T17:13:16;20.27;;;7.77;;
48241;SDS011;34041;51.812;4.622;2024-01-27T17:16:17;21.73;;;9.38;;
48241;SDS011;34041;51.812;4.622;2024-01-27T17:19:17;18.83;;;7.90;;
48241;SDS011;34041;51.812;4.622;2024-01-27T17:22:17;19.50;;;8.47;;
48241;SDS011;34041;51.812;4.622;2024-01-27T17:25:18;15.00;;;8.20;;
48241;SDS011;34041;51.812;4.622;2024-01-27T17:28:18;19.80;;;8.55;;
48241;SDS011;34041;51.812;4.622;2024-01-27T17:31:18;24.93;;;9.43;;
48241;SDS011;34041;51.812;4.622;2024-01-27T17:34:19;17.58;;;8.85;;
48241;SDS011;34041;51.812;4.622;2024-01-27T17:37:20;18.13;;;8.65;;
48241;SDS011;34041;51.812;4.622;2024-01-27T17:40:21;16.40;;;7.87;;
48241;SDS011;34041;51.812;4.622;2024-01-27T17:43:21;19.83;;;9.10;;
48241;SDS011;34041;51.812;4.622;2024-01-27T17:46:22;17.33;;;8.82;;
48241;SDS011;34041;51.812;4.622;2024-01-27T17:49:22;19.50;;;9.93;;
48241;SDS011;34041;51.812;4.622;2024-01-27T17:52:23;22.20;;;9.27;;